sensor_id;sensor_type;location;lat;lon;timestamp;P1;durP1;ratioP1;P2;durP2;ratioP2
29576;SDS011;16509;53.862;10.672;2023-07-20T00:01:50;1.85;;;0.82;;
29576;SDS011;16509;53.862;10.672;2023-07-20T00:04:16;3.63;;;1.08;;
29576;SDS011;16509;53.862;10.672;2023-07-20T00:06:41;1.27;;;1.00;;
29576;SDS011;16509;53.862;10.672;2023-07-20T00:09:07;1.00;;;0.90;;
29576;SDS011;16509;53.862;10.672;2023-07-20T00:11:35;1.23;;;1.13;;
29576;SDS011;16509;53.862;10.672;2023-07-20T00:14:02;3.35;;;1.75;;
29576;SDS011;16509;53.862;10.672;2023-07-20T00:16:29;0.90;;;0.90;;
29576;SDS011;16509;53.862;10.672;2023-07-20T00:18:54;0.80;;;0.80;;
29576;SDS011;16509;53.862;10.672;2023-07-20T00:21:20;0.82;;;0.82;;
29576;SDS011;16509;53.862;10.672;2023-07-20T00:23:45;0.63;;;0.63;;
29576;SDS011;16509;53.862;10.672;2023-07-20T00:26:11;0.82;;;0.82;;
29576;SDS011;16509;53.862;10.672;2023-07-20T00:28:36;0.90;;;0.90;;
29576;SDS011;16509;53.862;10.672;2023-07-20T00:31:02;0.80;;;0.80;;
29576;SDS011;16509;53.862;10.672;2023-07-20T00:33:28;1.25;;;1.08;;
29576;SDS011;16509;53.862;10.672;2023-07-20T00:35:53;1.00;;;0.90;;
29576;SDS011;16509;53.862;10.672;2023-07-20T00:38:19;0.63;;;0.63;;
29576;SDS011;16509;53.862;10.672;2023-07-20T00:40:45;0.40;;;0.40;;
29576;SDS011;16509;53.862;10.672;2023-07-20T00:43:11;0.90;;;0.90;;
29576;SDS011;16509;53.862;10.672;2023-07-20T00:45:37;0.80;;;0.80;;
29576;SDS011;16509;53.862;10.672;2023-07-20T00:48:04;0.70;;;0.70;;
29576;SDS011;16509;53.862;10.672;2023-07-20T00:50:31;1.20;;;1.10;;
29576;SDS011;16509;53.862;10.672;2023-07-20T00:52:57;0.70;;;0.70;;
29576;SDS011;16509;53.862;10.672;2023-07-20T00:55:23;0.80;;;0.75;;
29576;SDS011;16509;53.862;10.672;2023-07-20T00:57:50;0.70;;;0.70;;
29576;SDS011;16509;53.862;10.672;2023-07-20T01:00:16;0.73;;;0.73;;
29576;SDS011;16509;53.862;10.672;2023-07-20T01:02:41;0.70;;;0.70;;
29576;SDS011;16509;53.862;10.672;2023-07-20T01:05:07;0.85;;;0.85;;
29576;SDS011;16509;53.862;10.672;2023-07-20T01:07:38;0.82;;;0.82;;
29576;SDS011;16509;53.862;10.672;2023-07-20T01:10:12;0.75;;;0.75;;
29576;SDS011;16509;53.862;10.672;2023-07-20T01:12:46;0.60;;;0.60;;
29576;SDS011;16509;53.862;10.672;2023-07-20T01:15:13;0.90;;;0.90;;
29576;SDS011;16509;53.862;10.672;2023-07-20T01:17:39;0.80;;;0.80;;
29576;SDS011;16509;53.862;10.672;2023-07-20T01:20:06;0.80;;;0.80;;
29576;SDS011;16509;53.862;10.672;2023-07-20T01:22:47;0.82;;;0.82;;
29576;SDS011;16509;53.862;10.672;2023-07-20T01:31:33;1.27;;;1.20;;
29576;SDS011;16509;53.862;10.672;2023-07-20T01:34:01;1.55;;;1.00;;
29576;SDS011;16509;53.862;10.672;2023-07-20T01:36:29;0.68;;;0.68;;
29576;SDS011;16509;53.862;10.672;2023-07-20T01:38:57;1.30;;;1.20;;
29576;SDS011;16509;53.862;10.672;2023-07-20T01:41:24;1.00;;;0.80;;
29576;SDS011;16509;53.862;10.672;2023-07-20T01:43:49;0.90;;;0.90;;
29576;SDS011;16509;53.862;10.672;2023-07-20T01:46:15;0.63;;;0.63;;
29576;SDS011;16509;53.862;10.672;2023-07-20T01:48:41;0.85;;;0.85;;
29576;SDS011;16509;53.862;10.672;2023-07-20T01:51:07;0.68;;;0.68;;
29576;SDS011;16509;53.862;10.672;2023-07-20T01:53:32;0.80;;;0.80;;
29576;SDS011;16509;53.862;10.672;2023-07-20T01:55:59;1.00;;;1.00;;
29576;SDS011;16509;53.862;10.672;2023-07-20T01:58:24;0.90;;;0.90;;
29576;SDS011;16509;53.862;10.672;2023-07-20T02:00:50;0.80;;;0.80;;
29576;SDS011;16509;53.862;10.672;2023-07-20T02:03:16;1.10;;;1.00;;
29576;SDS011;16509;53.862;10.672;2023-07-20T02:05:45;1.27;;;1.17;;
29576;SDS011;16509;53.862;10.672;2023-07-20T02:08:10;1.00;;;1.00;;
29576;SDS011;16509;53.862;10.672;2023-07-20T02:10:36;1.33;;;1.23;;
29576;SDS011;16509;53.862;10.672;2023-07-20T02:13:01;0.90;;;0.90;;
29576;SDS011;16509;53.862;10.672;2023-07-20T02:22:24;1.17;;;1.08;;
29576;SDS011;16509;53.862;10.672;2023-07-20T02:24:50;0.80;;;0.80;;
29576;SDS011;16509;53.862;10.672;2023-07-20T02:27:16;1.10;;;1.00;;
29576;SDS011;16509;53.862;10.672;2023-07-20T02:32:31;1.70;;;0.98;;
29576;SDS011;16509;53.862;10.672;2023-07-20T02:34:57;1.20;;;1.10;;
29576;SDS011;16509;53.862;10.672;2023-07-20T02:37:23;1.65;;;1.20;;
29576;SDS011;16509;53.862;10.672;2023-07-20T02:39:49;0.90;;;0.90;;
29576;SDS011;16509;53.862;10.672;2023-07-20T02:42:15;1.02;;;0.85;;
29576;SDS011;16509;53.862;10.672;2023-07-20T02:44:40;0.70;;;0.70;;
29576;SDS011;16509;53.862;10.672;2023-07-20T02:47:07;0.82;;;0.82;;
29576;SDS011;16509;53.862;10.672;2023-07-20T02:49:33;1.17;;;1.10;;
29576;SDS011;16509;53.862;10.672;2023-07-20T02:51:59;1.40;;;1.30;;
29576;SDS011;16509;53.862;10.672;2023-07-20T02:54:29;0.93;;;0.93;;
29576;SDS011;16509;53.862;10.672;2023-07-20T02:56:55;0.80;;;0.80;;
29576;SDS011;16509;53.862;10.672;2023-07-20T02:59:21;0.70;;;0.70;;
29576;SDS011;16509;53.862;10.672;2023-07-20T03:01:47;1.17;;;0.77;;
29576;SDS011;16509;53.862;10.672;2023-07-20T03:04:13;1.33;;;1.23;;
29576;SDS011;16509;53.862;10.672;2023-07-20T03:06:42;1.08;;;0.98;;
29576;SDS011;16509;53.862;10.672;2023-07-20T03:09:10;1.10;;;1.00;;
29576;SDS011;16509;53.862;10.672;2023-07-20T03:11:36;2.30;;;1.25;;
29576;SDS011;16509;53.862;10.672;2023-07-20T03:14:04;0.80;;;0.80;;
29576;SDS011;16509;53.862;10.672;2023-07-20T03:16:30;1.48;;;1.17;;
29576;SDS011;16509;53.862;10.672;2023-07-20T03:18:58;1.60;;;1.08;;
29576;SDS011;16509;53.862;10.672;2023-07-20T03:21:25;0.98;;;0.90;;
29576;SDS011;16509;53.862;10.672;2023-07-20T03:23:51;0.88;;;0.88;;
29576;SDS011;16509;53.862;10.672;2023-07-20T03:26:17;0.95;;;0.90;;
29576;SDS011;16509;53.862;10.672;2023-07-20T03:28:43;1.20;;;1.10;;
29576;SDS011;16509;53.862;10.672;2023-07-20T03:31:09;1.00;;;0.90;;
29576;SDS011;16509;53.862;10.672;2023-07-20T03:33:36;1.27;;;1.10;;
29576;SDS011;16509;53.862;10.672;2023-07-20T03:39:04;1.25;;;1.10;;
29576;SDS011;16509;53.862;10.672;2023-07-20T03:41:32;0.85;;;0.85;;
29576;SDS011;16509;53.862;10.672;2023-07-20T03:43:58;0.90;;;0.85;;
29576;SDS011;16509;53.862;10.672;2023-07-20T03:46:26;1.20;;;0.90;;
29576;SDS011;16509;53.862;10.672;2023-07-20T03:48:52;3.22;;;0.93;;
29576;SDS011;16509;53.862;10.672;2023-07-20T03:51:18;4.03;;;1.20;;
29576;SDS011;16509;53.862;10.672;2023-07-20T03:53:44;0.65;;;0.65;;
29576;SDS011;16509;53.862;10.672;2023-07-20T03:56:10;1.00;;;0.82;;
29576;SDS011;16509;53.862;10.672;2023-07-20T03:58:36;1.00;;;0.90;;
29576;SDS011;16509;53.862;10.672;2023-07-20T04:01:02;1.52;;;0.90;;
29576;SDS011;16509;53.862;10.672;2023-07-20T04:03:28;1.80;;;1.70;;
29576;SDS011;16509;53.862;10.672;2023-07-20T04:05:54;1.20;;;1.10;;
29576;SDS011;16509;53.862;10.672;2023-07-20T04:08:23;0.98;;;0.82;;
29576;SDS011;16509;53.862;10.672;2023-07-20T04:10:49;0.90;;;0.90;;
29576;SDS011;16509;53.862;10.672;2023-07-20T04:13:15;1.10;;;1.00;;
29576;SDS011;16509;53.862;10.672;2023-07-20T04:15:41;1.00;;;0.85;;
29576;SDS011;16509;53.862;10.672;2023-07-20T04:18:07;0.60;;;0.60;;
29576;SDS011;16509;53.862;10.672;2023-07-20T04:20:33;0.85;;;0.75;;
29576;SDS011;16509;53.862;10.672;2023-07-20T04:22:58;1.05;;;0.70;;
29576;SDS011;16509;53.862;10.672;2023-07-20T04:25:24;0.70;;;0.70;;
29576;SDS011;16509;53.862;10.672;2023-07-20T04:27:49;2.30;;;0.70;;
29576;SDS011;16509;53.862;10.672;2023-07-20T04:30:17;0.63;;;0.63;;
29576;SDS011;16509;53.862;10.672;2023-07-20T04:32:47;0.60;;;0.60;;
29576;SDS011;16509;53.862;10.672;2023-07-20T04:35:17;0.65;;;0.65;;
29576;SDS011;16509;53.862;10.672;2023-07-20T04:38:03;1.05;;;0.90;;
29576;SDS011;16509;53.862;10.672;2023-07-20T04:40:28;0.65;;;0.65;;
29576;SDS011;16509;53.862;10.672;2023-07-20T04:42:54;1.10;;;1.00;;
29576;SDS011;16509;53.862;10.672;2023-07-20T04:45:19;3.75;;;0.75;;
29576;SDS011;16509;53.862;10.672;2023-07-20T04:47:47;0.90;;;0.88;;
29576;SDS011;16509;53.862;10.672;2023-07-20T04:50:15;0.60;;;0.60;;
29576;SDS011;16509;53.862;10.672;2023-07-20T04:52:40;0.68;;;0.68;;
29576;SDS011;16509;53.862;10.672;2023-07-20T04:55:06;0.70;;;0.70;;
29576;SDS011;16509;53.862;10.672;2023-07-20T04:57:32;0.75;;;0.68;;
29576;SDS011;16509;53.862;10.672;2023-07-20T04:59:58;1.25;;;0.90;;
29576;SDS011;16509;53.862;10.672;2023-07-20T05:02:24;1.75;;;1.00;;
29576;SDS011;16509;53.862;10.672;2023-07-20T05:04:49;0.80;;;0.80;;
29576;SDS011;16509;53.862;10.672;2023-07-20T05:07:15;1.23;;;1.13;;
29576;SDS011;16509;53.862;10.672;2023-07-20T05:09:40;0.95;;;0.93;;
29576;SDS011;16509;53.862;10.672;2023-07-20T05:12:06;1.55;;;0.93;;
29576;SDS011;16509;53.862;10.672;2023-07-20T05:14:32;0.75;;;0.75;;
29576;SDS011;16509;53.862;10.672;2023-07-20T05:16:58;1.83;;;1.30;;
29576;SDS011;16509;53.862;10.672;2023-07-20T05:19:24;1.73;;;1.63;;
29576;SDS011;16509;53.862;10.672;2023-07-20T05:21:50;2.50;;;1.10;;
29576;SDS011;16509;53.862;10.672;2023-07-20T05:24:16;1.90;;;1.52;;
29576;SDS011;16509;53.862;10.672;2023-07-20T05:26:41;1.75;;;1.30;;
29576;SDS011;16509;53.862;10.672;2023-07-20T05:29:07;1.45;;;1.23;;
29576;SDS011;16509;53.862;10.672;2023-07-20T05:31:32;1.42;;;1.05;;
29576;SDS011;16509;53.862;10.672;2023-07-20T05:33:58;1.02;;;0.90;;
29576;SDS011;16509;53.862;10.672;2023-07-20T05:36:24;1.23;;;0.98;;
29576;SDS011;16509;53.862;10.672;2023-07-20T05:38:49;1.35;;;1.25;;
29576;SDS011;16509;53.862;10.672;2023-07-20T05:41:15;1.23;;;1.17;;
29576;SDS011;16509;53.862;10.672;2023-07-20T05:51:17;1.20;;;0.98;;
29576;SDS011;16509;53.862;10.672;2023-07-20T05:56:55;0.70;;;0.70;;
29576;SDS011;16509;53.862;10.672;2023-07-20T05:59:21;0.85;;;0.68;;
29576;SDS011;16509;53.862;10.672;2023-07-20T06:01:52;0.80;;;0.73;;
29576;SDS011;16509;53.862;10.672;2023-07-20T06:04:26;0.57;;;0.57;;
29576;SDS011;16509;53.862;10.672;2023-07-20T06:07:18;0.93;;;0.52;;
29576;SDS011;16509;53.862;10.672;2023-07-20T06:09:56;0.60;;;0.60;;
29576;SDS011;16509;53.862;10.672;2023-07-20T06:16:07;2.45;;;0.90;;
29576;SDS011;16509;53.862;10.672;2023-07-20T06:22:24;0.40;;;0.40;;
29576;SDS011;16509;53.862;10.672;2023-07-20T06:34:13;0.47;;;0.47;;
29576;SDS011;16509;53.862;10.672;2023-07-20T06:40:04;0.50;;;0.50;;
29576;SDS011;16509;53.862;10.672;2023-07-20T06:42:37;0.63;;;0.63;;
29576;SDS011;16509;53.862;10.672;2023-07-20T06:45:09;1.08;;;0.88;;
29576;SDS011;16509;53.862;10.672;2023-07-20T06:47:44;1.33;;;0.73;;
29576;SDS011;16509;53.862;10.672;2023-07-20T06:50:15;0.45;;;0.45;;
29576;SDS011;16509;53.862;10.672;2023-07-20T06:52:51;0.60;;;0.60;;
29576;SDS011;16509;53.862;10.672;2023-07-20T06:55:17;0.55;;;0.55;;
29576;SDS011;16509;53.862;10.672;2023-07-20T06:57:42;0.52;;;0.52;;
29576;SDS011;16509;53.862;10.672;2023-07-20T07:00:11;0.68;;;0.60;;
29576;SDS011;16509;53.862;10.672;2023-07-20T07:02:40;0.75;;;0.63;;
29576;SDS011;16509;53.862;10.672;2023-07-20T07:05:08;1.75;;;0.90;;
29576;SDS011;16509;53.862;10.672;2023-07-20T07:07:36;0.77;;;0.68;;
29576;SDS011;16509;53.862;10.672;2023-07-20T07:10:02;1.05;;;0.65;;
29576;SDS011;16509;53.862;10.672;2023-07-20T07:12:30;1.33;;;0.70;;
29576;SDS011;16509;53.862;10.672;2023-07-20T07:14:56;2.85;;;0.90;;
29576;SDS011;16509;53.862;10.672;2023-07-20T07:17:22;0.73;;;0.50;;
29576;SDS011;16509;53.862;10.672;2023-07-20T07:19:48;1.17;;;0.50;;
29576;SDS011;16509;53.862;10.672;2023-07-20T07:22:17;0.50;;;0.50;;
29576;SDS011;16509;53.862;10.672;2023-07-20T07:24:43;1.25;;;0.80;;
29576;SDS011;16509;53.862;10.672;2023-07-20T07:27:09;0.40;;;0.40;;
29576;SDS011;16509;53.862;10.672;2023-07-20T07:29:35;0.77;;;0.52;;
29576;SDS011;16509;53.862;10.672;2023-07-20T07:32:01;1.05;;;0.93;;
29576;SDS011;16509;53.862;10.672;2023-07-20T07:34:27;0.60;;;0.60;;
29576;SDS011;16509;53.862;10.672;2023-07-20T07:36:53;0.50;;;0.50;;
29576;SDS011;16509;53.862;10.672;2023-07-20T07:39:22;0.60;;;0.60;;
29576;SDS011;16509;53.862;10.672;2023-07-20T07:41:49;0.50;;;0.50;;
29576;SDS011;16509;53.862;10.672;2023-07-20T07:44:15;0.57;;;0.57;;
29576;SDS011;16509;53.862;10.672;2023-07-20T07:46:41;0.57;;;0.57;;
29576;SDS011;16509;53.862;10.672;2023-07-20T07:49:07;0.75;;;0.75;;
29576;SDS011;16509;53.862;10.672;2023-07-20T07:51:33;0.98;;;0.68;;
29576;SDS011;16509;53.862;10.672;2023-07-20T07:53:59;0.70;;;0.70;;
29576;SDS011;16509;53.862;10.672;2023-07-20T07:56:25;0.60;;;0.60;;
29576;SDS011;16509;53.862;10.672;2023-07-20T07:58:51;0.60;;;0.60;;
29576;SDS011;16509;53.862;10.672;2023-07-20T08:01:18;1.00;;;0.88;;
29576;SDS011;16509;53.862;10.672;2023-07-20T08:03:44;1.05;;;0.85;;
29576;SDS011;16509;53.862;10.672;2023-07-20T08:06:12;2.47;;;0.75;;
29576;SDS011;16509;53.862;10.672;2023-07-20T08:08:38;0.65;;;0.60;;
29576;SDS011;16509;53.862;10.672;2023-07-20T08:11:04;3.15;;;1.40;;
29576;SDS011;16509;53.862;10.672;2023-07-20T08:13:30;2.53;;;1.00;;
29576;SDS011;16509;53.862;10.672;2023-07-20T08:15:56;2.95;;;0.90;;
29576;SDS011;16509;53.862;10.672;2023-07-20T08:18:25;1.48;;;0.85;;
29576;SDS011;16509;53.862;10.672;2023-07-20T08:20:51;3.35;;;0.80;;
29576;SDS011;16509;53.862;10.672;2023-07-20T08:23:17;6.85;;;1.17;;
29576;SDS011;16509;53.862;10.672;2023-07-20T08:25:43;1.67;;;0.70;;
29576;SDS011;16509;53.862;10.672;2023-07-20T08:28:09;1.70;;;0.68;;
29576;SDS011;16509;53.862;10.672;2023-07-20T08:30:40;0.57;;;0.57;;
29576;SDS011;16509;53.862;10.672;2023-07-20T08:33:10;4.90;;;0.93;;
29576;SDS011;16509;53.862;10.672;2023-07-20T08:35:37;1.73;;;0.75;;
29576;SDS011;16509;53.862;10.672;2023-07-20T08:38:03;0.60;;;0.60;;
29576;SDS011;16509;53.862;10.672;2023-07-20T08:40:33;1.73;;;0.70;;
29576;SDS011;16509;53.862;10.672;2023-07-20T08:43:03;0.90;;;0.77;;
29576;SDS011;16509;53.862;10.672;2023-07-20T08:45:30;1.05;;;0.88;;
29576;SDS011;16509;53.862;10.672;2023-07-20T08:47:58;2.03;;;0.65;;
29576;SDS011;16509;53.862;10.672;2023-07-20T08:50:27;0.63;;;0.63;;
29576;SDS011;16509;53.862;10.672;2023-07-20T08:52:58;0.60;;;0.60;;
29576;SDS011;16509;53.862;10.672;2023-07-20T08:55:25;4.68;;;0.77;;
29576;SDS011;16509;53.862;10.672;2023-07-20T08:57:53;0.43;;;0.43;;
29576;SDS011;16509;53.862;10.672;2023-07-20T09:00:20;1.27;;;0.57;;
29576;SDS011;16509;53.862;10.672;2023-07-20T09:02:48;0.80;;;0.65;;
29576;SDS011;16509;53.862;10.672;2023-07-20T09:05:15;2.17;;;0.80;;
29576;SDS011;16509;53.862;10.672;2023-07-20T09:07:41;0.57;;;0.47;;
29576;SDS011;16509;53.862;10.672;2023-07-20T09:10:07;4.22;;;0.93;;
29576;SDS011;16509;53.862;10.672;2023-07-20T09:12:40;0.88;;;0.63;;
29576;SDS011;16509;53.862;10.672;2023-07-20T09:15:08;0.73;;;0.73;;
29576;SDS011;16509;53.862;10.672;2023-07-20T09:17:35;0.77;;;0.63;;
29576;SDS011;16509;53.862;10.672;2023-07-20T09:20:04;0.65;;;0.63;;
29576;SDS011;16509;53.862;10.672;2023-07-20T09:22:36;0.50;;;0.50;;
29576;SDS011;16509;53.862;10.672;2023-07-20T09:48:17;0.45;;;0.45;;
29576;SDS011;16509;53.862;10.672;2023-07-20T09:50:50;0.75;;;0.50;;
29576;SDS011;16509;53.862;10.672;2023-07-20T09:53:18;1.45;;;0.70;;
29576;SDS011;16509;53.862;10.672;2023-07-20T09:55:45;0.73;;;0.70;;
29576;SDS011;16509;53.862;10.672;2023-07-20T09:58:13;0.98;;;0.57;;
29576;SDS011;16509;53.862;10.672;2023-07-20T10:00:40;0.45;;;0.45;;
29576;SDS011;16509;53.862;10.672;2023-07-20T10:03:13;0.50;;;0.50;;
29576;SDS011;16509;53.862;10.672;2023-07-20T10:05:43;0.55;;;0.55;;
29576;SDS011;16509;53.862;10.672;2023-07-20T10:08:14;2.88;;;1.25;;
29576;SDS011;16509;53.862;10.672;2023-07-20T10:14:04;1.13;;;0.50;;
29576;SDS011;16509;53.862;10.672;2023-07-20T10:23:49;0.43;;;0.43;;
29576;SDS011;16509;53.862;10.672;2023-07-20T10:26:15;0.50;;;0.50;;
29576;SDS011;16509;53.862;10.672;2023-07-20T10:28:41;0.80;;;0.80;;
29576;SDS011;16509;53.862;10.672;2023-07-20T10:31:08;0.52;;;0.52;;
29576;SDS011;16509;53.862;10.672;2023-07-20T10:33:37;1.42;;;0.93;;
29576;SDS011;16509;53.862;10.672;2023-07-20T10:36:03;2.45;;;1.58;;
29576;SDS011;16509;53.862;10.672;2023-07-20T10:44:00;0.30;;;0.30;;
29576;SDS011;16509;53.862;10.672;2023-07-20T10:49:08;0.45;;;0.45;;
29576;SDS011;16509;53.862;10.672;2023-07-20T10:51:39;0.30;;;0.30;;
29576;SDS011;16509;53.862;10.672;2023-07-20T11:01:49;0.30;;;0.30;;
29576;SDS011;16509;53.862;10.672;2023-07-20T11:04:15;0.30;;;0.30;;
29576;SDS011;16509;53.862;10.672;2023-07-20T11:06:43;0.30;;;0.30;;
29576;SDS011;16509;53.862;10.672;2023-07-20T11:09:10;0.35;;;0.30;;
29576;SDS011;16509;53.862;10.672;2023-07-20T11:11:40;0.45;;;0.45;;
29576;SDS011;16509;53.862;10.672;2023-07-20T11:14:07;1.60;;;0.43;;
29576;SDS011;16509;53.862;10.672;2023-07-20T11:16:45;1.05;;;0.68;;
29576;SDS011;16509;53.862;10.672;2023-07-20T11:19:19;0.30;;;0.30;;
29576;SDS011;16509;53.862;10.672;2023-07-20T11:21:51;0.30;;;0.30;;
29576;SDS011;16509;53.862;10.672;2023-07-20T12:18:00;1.05;;;0.38;;
29576;SDS011;16509;53.862;10.672;2023-07-20T12:20:42;1.23;;;0.30;;
29576;SDS011;16509;53.862;10.672;2023-07-20T12:30:09;0.20;;;0.20;;
29576;SDS011;16509;53.862;10.672;2023-07-20T12:32:52;0.20;;;0.20;;
29576;SDS011;16509;53.862;10.672;2023-07-20T12:35:18;0.30;;;0.30;;
29576;SDS011;16509;53.862;10.672;2023-07-20T12:37:44;0.20;;;0.20;;
29576;SDS011;16509;53.862;10.672;2023-07-20T12:40:14;1.98;;;0.20;;
29576;SDS011;16509;53.862;10.672;2023-07-20T12:42:43;0.20;;;0.20;;
29576;SDS011;16509;53.862;10.672;2023-07-20T12:45:11;0.20;;;0.20;;
29576;SDS011;16509;53.862;10.672;2023-07-20T12:47:41;1.08;;;0.30;;
29576;SDS011;16509;53.862;10.672;2023-07-20T12:53:45;0.28;;;0.28;;
29576;SDS011;16509;53.862;10.672;2023-07-20T12:56:17;0.20;;;0.20;;
29576;SDS011;16509;53.862;10.672;2023-07-20T12:58:44;0.28;;;0.28;;
29576;SDS011;16509;53.862;10.672;2023-07-20T13:04:59;0.30;;;0.28;;
29576;SDS011;16509;53.862;10.672;2023-07-20T13:11:12;0.22;;;0.20;;
29576;SDS011;16509;53.862;10.672;2023-07-20T13:14:00;0.30;;;0.30;;
29576;SDS011;16509;53.862;10.672;2023-07-20T13:20:06;0.20;;;0.20;;
29576;SDS011;16509;53.862;10.672;2023-07-20T13:22:39;0.13;;;0.13;;
29576;SDS011;16509;53.862;10.672;2023-07-20T13:25:16;0.20;;;0.20;;
29576;SDS011;16509;53.862;10.672;2023-07-20T13:28:04;1.35;;;0.50;;
29576;SDS011;16509;53.862;10.672;2023-07-20T13:30:30;0.17;;;0.17;;
29576;SDS011;16509;53.862;10.672;2023-07-20T13:33:08;0.20;;;0.20;;
29576;SDS011;16509;53.862;10.672;2023-07-20T13:39:01;0.55;;;0.30;;
29576;SDS011;16509;53.862;10.672;2023-07-20T13:45:07;1.38;;;0.47;;
29576;SDS011;16509;53.862;10.672;2023-07-20T13:53:52;0.40;;;0.40;;
29576;SDS011;16509;53.862;10.672;2023-07-20T13:56:20;0.40;;;0.40;;
29576;SDS011;16509;53.862;10.672;2023-07-20T13:58:52;2.08;;;0.50;;
29576;SDS011;16509;53.862;10.672;2023-07-20T14:01:22;1.35;;;0.40;;
29576;SDS011;16509;53.862;10.672;2023-07-20T14:03:52;0.43;;;0.25;;
29576;SDS011;16509;53.862;10.672;2023-07-20T14:06:29;0.57;;;0.30;;
29576;SDS011;16509;53.862;10.672;2023-07-20T14:08:56;0.20;;;0.20;;
29576;SDS011;16509;53.862;10.672;2023-07-20T14:11:22;0.75;;;0.60;;
29576;SDS011;16509;53.862;10.672;2023-07-20T14:13:48;1.08;;;0.30;;
29576;SDS011;16509;53.862;10.672;2023-07-20T14:16:14;0.85;;;0.50;;
29576;SDS011;16509;53.862;10.672;2023-07-20T14:18:40;0.35;;;0.35;;
29576;SDS011;16509;53.862;10.672;2023-07-20T14:21:05;0.15;;;0.15;;
29576;SDS011;16509;53.862;10.672;2023-07-20T14:23:32;0.30;;;0.30;;
29576;SDS011;16509;53.862;10.672;2023-07-20T14:25:58;0.30;;;0.30;;
29576;SDS011;16509;53.862;10.672;2023-07-20T14:28:24;1.38;;;0.55;;
29576;SDS011;16509;53.862;10.672;2023-07-20T14:30:50;0.30;;;0.30;;
29576;SDS011;16509;53.862;10.672;2023-07-20T14:33:15;2.03;;;0.30;;
29576;SDS011;16509;53.862;10.672;2023-07-20T14:35:41;0.40;;;0.40;;
29576;SDS011;16509;53.862;10.672;2023-07-20T14:38:06;0.30;;;0.30;;
29576;SDS011;16509;53.862;10.672;2023-07-20T14:40:32;0.28;;;0.28;;
29576;SDS011;16509;53.862;10.672;2023-07-20T14:42:58;0.30;;;0.30;;
29576;SDS011;16509;53.862;10.672;2023-07-20T14:45:25;0.28;;;0.28;;
29576;SDS011;16509;53.862;10.672;2023-07-20T14:47:54;0.30;;;0.30;;
29576;SDS011;16509;53.862;10.672;2023-07-20T14:50:20;0.30;;;0.30;;
29576;SDS011;16509;53.862;10.672;2023-07-20T14:52:46;0.20;;;0.20;;
29576;SDS011;16509;53.862;10.672;2023-07-20T14:55:12;0.30;;;0.30;;
29576;SDS011;16509;53.862;10.672;2023-07-20T14:57:38;0.38;;;0.38;;
29576;SDS011;16509;53.862;10.672;2023-07-20T15:00:04;0.30;;;0.30;;
29576;SDS011;16509;53.862;10.672;2023-07-20T15:02:35;0.57;;;0.30;;
29576;SDS011;16509;53.862;10.672;2023-07-20T15:05:06;0.25;;;0.25;;
29576;SDS011;16509;53.862;10.672;2023-07-20T15:07:32;0.55;;;0.52;;
29576;SDS011;16509;53.862;10.672;2023-07-20T15:09:58;1.50;;;0.45;;
29576;SDS011;16509;53.862;10.672;2023-07-20T15:12:24;0.60;;;0.43;;
29576;SDS011;16509;53.862;10.672;2023-07-20T15:15:02;0.40;;;0.40;;
29576;SDS011;16509;53.862;10.672;2023-07-20T15:17:30;3.20;;;0.50;;
29576;SDS011;16509;53.862;10.672;2023-07-20T15:19:55;2.70;;;0.50;;
29576;SDS011;16509;53.862;10.672;2023-07-20T15:22:21;2.42;;;0.50;;
29576;SDS011;16509;53.862;10.672;2023-07-20T15:24:47;0.70;;;0.70;;
29576;SDS011;16509;53.862;10.672;2023-07-20T15:27:12;0.40;;;0.40;;
29576;SDS011;16509;53.862;10.672;2023-07-20T15:29:38;0.20;;;0.20;;
29576;SDS011;16509;53.862;10.672;2023-07-20T15:32:04;0.30;;;0.30;;
29576;SDS011;16509;53.862;10.672;2023-07-20T15:34:31;0.40;;;0.40;;
29576;SDS011;16509;53.862;10.672;2023-07-20T15:36:56;1.08;;;0.52;;
29576;SDS011;16509;53.862;10.672;2023-07-20T15:39:22;0.30;;;0.30;;
29576;SDS011;16509;53.862;10.672;2023-07-20T15:44:50;0.30;;;0.30;;
29576;SDS011;16509;53.862;10.672;2023-07-20T15:47:16;0.20;;;0.20;;
29576;SDS011;16509;53.862;10.672;2023-07-20T15:49:42;0.45;;;0.43;;
29576;SDS011;16509;53.862;10.672;2023-07-20T15:52:08;0.68;;;0.50;;
29576;SDS011;16509;53.862;10.672;2023-07-20T15:54:33;0.70;;;0.70;;
29576;SDS011;16509;53.862;10.672;2023-07-20T15:56:59;0.75;;;0.70;;
29576;SDS011;16509;53.862;10.672;2023-07-20T15:59:24;0.40;;;0.40;;
29576;SDS011;16509;53.862;10.672;2023-07-20T16:01:50;6.57;;;1.23;;
29576;SDS011;16509;53.862;10.672;2023-07-20T16:04:15;0.57;;;0.57;;
29576;SDS011;16509;53.862;10.672;2023-07-20T16:06:41;0.60;;;0.60;;
29576;SDS011;16509;53.862;10.672;2023-07-20T16:09:08;0.82;;;0.68;;
29576;SDS011;16509;53.862;10.672;2023-07-20T16:11:34;0.40;;;0.40;;
29576;SDS011;16509;53.862;10.672;2023-07-20T16:14:00;0.75;;;0.50;;
29576;SDS011;16509;53.862;10.672;2023-07-20T16:16:30;0.30;;;0.30;;
29576;SDS011;16509;53.862;10.672;2023-07-20T16:18:56;2.58;;;0.45;;
29576;SDS011;16509;53.862;10.672;2023-07-20T16:21:22;0.30;;;0.30;;
29576;SDS011;16509;53.862;10.672;2023-07-20T16:23:47;0.32;;;0.32;;
29576;SDS011;16509;53.862;10.672;2023-07-20T16:26:13;0.50;;;0.32;;
29576;SDS011;16509;53.862;10.672;2023-07-20T16:28:38;0.80;;;0.40;;
29576;SDS011;16509;53.862;10.672;2023-07-20T16:31:11;0.32;;;0.32;;
29576;SDS011;16509;53.862;10.672;2023-07-20T16:33:37;0.40;;;0.38;;
29576;SDS011;16509;53.862;10.672;2023-07-20T16:36:07;0.73;;;0.73;;
29576;SDS011;16509;53.862;10.672;2023-07-20T16:38:34;0.40;;;0.40;;
29576;SDS011;16509;53.862;10.672;2023-07-20T16:40:59;3.70;;;0.60;;
29576;SDS011;16509;53.862;10.672;2023-07-20T16:43:25;2.58;;;0.60;;
29576;SDS011;16509;53.862;10.672;2023-07-20T16:45:50;0.88;;;0.63;;
29576;SDS011;16509;53.862;10.672;2023-07-20T16:48:16;4.75;;;0.65;;
29576;SDS011;16509;53.862;10.672;2023-07-20T16:50:41;0.47;;;0.47;;
29576;SDS011;16509;53.862;10.672;2023-07-20T16:53:07;0.50;;;0.50;;
29576;SDS011;16509;53.862;10.672;2023-07-20T16:55:32;0.95;;;0.47;;
29576;SDS011;16509;53.862;10.672;2023-07-20T16:57:58;0.50;;;0.50;;
29576;SDS011;16509;53.862;10.672;2023-07-20T17:00:24;2.03;;;0.50;;
29576;SDS011;16509;53.862;10.672;2023-07-20T17:02:50;0.43;;;0.43;;
29576;SDS011;16509;53.862;10.672;2023-07-20T17:05:16;0.50;;;0.50;;
29576;SDS011;16509;53.862;10.672;2023-07-20T17:07:41;0.60;;;0.57;;
29576;SDS011;16509;53.862;10.672;2023-07-20T17:10:07;1.60;;;0.70;;
29576;SDS011;16509;53.862;10.672;2023-07-20T17:12:36;0.77;;;0.60;;
29576;SDS011;16509;53.862;10.672;2023-07-20T17:15:02;0.40;;;0.40;;
29576;SDS011;16509;53.862;10.672;2023-07-20T17:17:28;0.52;;;0.52;;
29576;SDS011;16509;53.862;10.672;2023-07-20T17:19:53;0.52;;;0.50;;
29576;SDS011;16509;53.862;10.672;2023-07-20T17:22:19;0.73;;;0.73;;
29576;SDS011;16509;53.862;10.672;2023-07-20T17:24:45;1.17;;;0.50;;
29576;SDS011;16509;53.862;10.672;2023-07-20T17:27:10;0.50;;;0.50;;
29576;SDS011;16509;53.862;10.672;2023-07-20T17:29:36;1.85;;;0.65;;
29576;SDS011;16509;53.862;10.672;2023-07-20T17:32:02;0.52;;;0.52;;
29576;SDS011;16509;53.862;10.672;2023-07-20T17:34:28;1.02;;;0.73;;
29576;SDS011;16509;53.862;10.672;2023-07-20T17:36:54;0.82;;;0.70;;
29576;SDS011;16509;53.862;10.672;2023-07-20T17:39:20;1.08;;;0.88;;
29576;SDS011;16509;53.862;10.672;2023-07-20T17:41:46;0.80;;;0.80;;
29576;SDS011;16509;53.862;10.672;2023-07-20T17:44:12;0.60;;;0.60;;
29576;SDS011;16509;53.862;10.672;2023-07-20T17:46:37;0.50;;;0.50;;